Afton, Virginia
Current Conditions -  °F | °C
As of 11:35 AM on Thursday 30 Oct 2014 (Local Time) from KW13 Reporting Station
Scattered Clouds Scattered Clouds  
Wind Chill: 50°   Ceiling: Unl
Heat Index: 50°   Visibility: 10mi
Dew Point: 37°   Wind: 7mph
Humidity: 61%   Direction: 10°N
Pressure: 30.08"   Gusts: NA
Location:  38°N, 78.78°W
Report Text: KW13 301535Z AUTO 01006KT 10SM SCT048 10/03 A3008 RMK AO1 T01010028
Loading
Personal Weather Stations






























Interactive Weather Map
Tropical Storm Tracking
New forecast layout! Learn more

10-Day Weather Forecast

Advertisements
Track Severe Weather on mobile